Time;durP1;ratioP1;P1;durP2;ratioP2;P2;SDS_P1;SDS_P2;PMS_P1;PMS_P2;Temp;Humidity;BMP_temperature;BMP_pressure;BME280_temperature;BME280_humidity;BME280_pressure;Samples;Min_cycle;Max_cycle;Signal;HPM_P1;HPM_P2
2022/08/24 00:01:12;;;;;;;3.65;2.33;;;22.60;93.00;;;23.20;91.20;101042.22;5129056;28;20058;-81
2022/08/24 00:03:48;;;;;;;3.10;1.83;;;22.50;93.10;;;23.17;91.53;101039.63;5097690;28;20439;-81
2022/08/24 00:06:22;;;;;;;2.97;1.85;;;22.50;93.30;;;23.17;91.63;101039.63;5128575;28;20047;-80
2022/08/24 00:08:56;;;;;;;;;;;22.50;93.40;;;23.14;92.07;101044.97;5129160;28;20043;-81
2022/08/24 00:11:30;;;;;;;4.57;2.15;;;22.50;93.50;;;23.10;91.68;101041.50;5128681;28;19922;-81
2022/08/24 00:14:03;;;;;;;2.60;1.92;;;22.50;93.50;;;23.08;91.76;101040.59;5128732;28;20050;-80
2022/08/24 00:16:35;;;;;;;2.90;1.90;;;22.50;93.60;;;23.08;92.29;101039.72;5128416;28;20059;-81
2022/08/24 00:19:10;;;;;;;3.15;1.95;;;22.50;93.80;;;23.05;92.61;101045.09;5112772;28;20105;-81
2022/08/24 00:21:42;;;;;;;4.57;2.05;;;22.40;93.90;;;23.01;92.86;101049.56;5128308;28;20050;-81
2022/08/24 00:24:15;;;;;;;3.58;2.03;;;22.40;94.10;;;22.98;93.11;101053.16;5128659;28;20142;-81
2022/08/24 00:26:48;;;;;;;3.38;1.80;;;22.40;94.30;;;22.96;93.51;101056.75;5145607;28;20085;-81
2022/08/24 00:29:22;;;;;;;3.00;1.95;;;22.40;94.40;;;22.94;93.41;101048.75;5112429;28;20077;-80
2022/08/24 00:31:55;;;;;;;;;;;22.30;94.40;;;22.91;92.75;101050.59;5128584;28;20065;-80
2022/08/24 00:34:30;;;;;;;3.30;1.80;;;22.30;94.30;;;22.91;92.79;101048.81;5128427;28;19928;-81
2022/08/24 00:37:03;;;;;;;3.80;2.00;;;22.30;94.40;;;22.88;92.33;101043.50;5128248;28;20503;-81
2022/08/24 00:39:35;;;;;;;4.13;1.85;;;22.30;94.30;;;22.87;92.07;101044.41;5128107;28;20109;-80
2022/08/24 00:42:11;;;;;;;4.55;2.20;;;22.20;94.30;;;22.85;92.54;101048.84;5128110;28;20053;-79
2022/08/24 00:44:44;;;;;;;4.45;1.95;;;22.20;94.40;;;22.80;92.67;101050.66;5128232;28;20057;-80
2022/08/24 00:47:22;;;;;;;3.95;2.20;;;22.20;94.50;;;22.73;93.28;101043.66;5112164;28;20418;-80
2022/08/24 00:50:04;;;;;;;4.50;2.10;;;22.10;94.70;;;22.63;94.05;101037.59;5128050;28;20061;-80
2022/08/24 00:52:43;;;;;;;3.75;1.90;;;22.10;95.00;;;22.59;94.51;101043.81;5127768;28;20051;-81
2022/08/24 00:55:19;;;;;;;2.70;1.83;;;22.00;95.20;;;22.53;94.53;101040.34;5112432;28;20106;-81
2022/08/24 00:57:59;;;;;;;3.50;2.28;;;22.00;95.30;;;22.44;94.94;101042.22;5127716;28;20047;-81
2022/08/24 01:00:40;;;;;;;3.47;2.03;;;21.90;95.50;;;22.40;95.53;101034.28;5112349;28;20058;-81
2022/08/24 01:03:13;;;;;;;3.63;2.00;;;21.80;95.70;;;22.36;96.14;101037.84;5127882;28;20060;-80
2022/08/24 01:05:47;;;;;;;3.78;2.10;;;21.80;96.00;;;22.30;96.79;101033.50;5127083;28;20047;-80
2022/08/24 01:08:22;;;;;;;3.58;2.35;;;21.70;96.30;;;22.29;96.95;101042.34;5127631;28;20489;-81
2022/08/24 01:11:00;;;;;;;2.85;1.77;;;21.70;96.50;;;22.25;97.10;101042.41;5127392;28;20042;-81
2022/08/24 01:13:35;;;;;;;4.68;2.15;;;21.70;96.60;;;22.21;97.09;101044.19;5143271;28;20054;-81
2022/08/24 01:16:09;;;;;;;3.30;2.10;;;21.60;96.70;;;22.16;97.73;101048.66;5112393;28;20130;-81
2022/08/24 01:18:48;;;;;;;5.63;2.78;;;21.60;97.00;;;22.06;97.36;101049.63;5127979;28;20097;-81
2022/08/24 01:21:30;;;;;;;4.03;2.65;;;21.50;96.90;;;22.05;96.93;101047.88;5112804;28;20067;-81
2022/08/24 01:24:11;;;;;;;4.82;2.28;;;21.50;96.80;;;22.11;97.07;101053.16;5111239;28;20051;-81
2022/08/24 01:26:47;;;;;;;3.28;2.33;;;21.60;97.00;;;22.09;97.33;101044.31;5111055;28;20097;-81
2022/08/24 01:29:27;;;;;;;3.67;2.50;;;21.60;97.10;;;22.09;97.76;101047.84;5111535;28;20426;-81
2022/08/24 01:32:01;;;;;;;6.18;2.58;;;21.60;97.30;;;22.01;97.35;101057.63;5127624;28;20055;-81
2022/08/24 01:34:34;;;;;;;4.57;2.70;;;21.50;97.10;;;21.97;97.01;101041.72;5111257;28;20055;-81
2022/08/24 01:37:10;;;;;;;4.70;2.30;;;21.50;97.10;;;22.00;97.34;101047.00;5110634;28;20085;-81
2022/08/24 01:39:47;;;;;;;3.63;2.17;;;21.40;97.30;;;22.02;97.14;101042.56;5127215;28;20039;-82
2022/08/24 01:42:21;;;;;;;3.30;2.10;;;21.50;97.30;;;22.03;96.80;101055.81;5095216;28;20061;-82
2022/08/24 01:44:54;;;;;;;4.10;2.45;;;21.50;97.20;;;22.04;96.75;101051.38;5127020;28;20074;-82
2022/08/24 01:47:27;;;;;;;4.50;2.40;;;21.40;97.20;;;22.02;96.53;101054.06;5126844;28;20070;-82
2022/08/24 01:50:04;;;;;;;3.38;2.20;;;21.50;97.20;;;22.02;97.06;101055.84;5097207;28;20062;-81
2022/08/24 01:52:39;;;;;;;4.38;2.70;;;21.50;97.30;;;21.98;97.15;101057.66;5111353;28;20101;-81
2022/08/24 01:55:16;;;;;;;3.60;2.25;;;21.40;97.40;;;21.92;97.52;101057.69;5111069;28;20069;-81
2022/08/24 01:57:49;;;;;;;3.38;2.10;;;21.40;97.60;;;21.84;98.07;101060.41;5111199;28;20138;-81
2022/08/24 02:00:23;;;;;;;3.45;2.25;;;21.30;98.00;;;21.83;98.62;101066.59;5126613;28;20134;-81
2022/08/24 02:02:58;;;;;;;3.75;2.40;;;21.30;98.00;;;21.81;98.35;101065.72;5126870;28;20128;-81
2022/08/24 02:05:30;;;;;;;3.85;2.15;;;21.30;98.00;;;21.77;98.71;101063.97;5126903;28;20082;-81
2022/08/24 02:08:05;;;;;;;3.38;2.10;;;21.20;98.10;;;21.72;98.89;101057.84;5111202;28;20081;-81
2022/08/24 02:10:39;;;;;;;2.92;1.95;;;21.20;98.20;;;21.68;99.67;101061.41;5110642;28;20117;-82
2022/08/24 02:13:14;;;;;;;3.65;2.22;;;21.10;98.50;;;21.64;99.76;101062.28;5142676;28;20043;-82
2022/08/24 02:15:46;;;;;;;3.72;2.03;;;21.10;98.60;;;21.60;99.63;101064.09;5143966;28;20101;-80
2022/08/24 02:18:19;;;;;;;2.92;2.33;;;21.00;98.60;;;21.57;99.68;101071.19;5115521;28;20450;-81
2022/08/24 02:20:52;;;;;;;4.20;2.28;;;21.00;98.60;;;21.53;99.57;101070.34;5115017;28;20078;-81
2022/08/24 02:23:27;;;;;;;2.80;2.13;;;21.00;98.70;;;21.48;100.00;101074.78;5130901;28;20043;-82
2022/08/24 02:26:01;;;;;;;2.92;2.20;;;20.90;98.80;;;21.43;100.00;101068.63;5114628;28;20051;-81
2022/08/24 02:28:35;;;;;;;4.00;2.60;;;20.90;99.00;;;21.40;100.00;101069.53;5130620;28;20135;-82
2022/08/24 02:31:09;;;;;;;6.22;2.53;;;20.90;99.10;;;21.39;100.00;101072.19;5098982;28;20054;-81
2022/08/24 02:33:42;;;;;;;3.10;2.30;;;20.80;99.10;;;21.36;100.00;101072.19;5130775;28;20051;-81
2022/08/24 02:36:16;;;;;;;3.20;1.90;;;20.90;99.30;;;21.32;100.00;101074.00;5148125;28;20043;-81
2022/08/24 02:38:49;;;;;;;3.58;2.40;;;20.80;99.40;;;21.30;100.00;101070.44;5130670;28;20050;-80
2022/08/24 02:41:26;;;;;;;4.55;2.50;;;20.80;99.80;;;21.27;100.00;101067.78;5114994;28;20154;-82
2022/08/24 02:44:01;;;;;;;3.40;2.17;;;20.70;99.60;;;21.24;100.00;101067.78;5098779;28;20493;-81
2022/08/24 02:46:34;;;;;;;;;;;20.70;99.70;;;21.23;100.00;101070.44;5130662;28;20057;-80
2022/08/24 02:49:07;;;;;;;2.40;2.10;;;20.70;99.80;;;21.24;100.00;101077.50;5130112;28;19925;-82
2022/08/24 02:51:43;;;;;;;4.50;2.90;;;20.70;99.80;;;21.22;100.00;101069.56;5098746;28;20104;-81
2022/08/24 02:54:18;;;;;;;3.83;2.45;;;20.70;99.50;;;21.22;100.00;101074.88;5130509;28;20110;-82
2022/08/24 02:56:53;;;;;;;4.18;2.58;;;20.70;99.40;;;21.22;100.00;101077.53;5130369;28;20039;-82
2022/08/24 02:59:25;;;;;;;3.08;2.38;;;20.70;99.40;;;21.23;99.99;101075.75;5130542;28;20043;-82
2022/08/24 03:01:58;;;;;;;3.78;2.33;;;20.70;99.30;;;21.23;99.89;101076.63;5114628;28;20074;-82
2022/08/24 03:04:31;;;;;;;3.80;2.22;;;20.70;99.30;;;21.23;99.73;101073.97;5114505;28;20051;-82
2022/08/24 03:07:05;;;;;;;3.17;2.30;;;20.70;99.20;;;21.18;99.80;101078.41;5130197;28;20042;-81
2022/08/24 03:09:37;;;;;;;4.22;2.40;;;20.70;99.20;;;21.17;99.73;101075.78;5147908;28;20039;-82
2022/08/24 03:12:11;;;;;;;3.45;2.13;;;20.60;99.20;;;21.14;100.00;101074.91;5114152;28;20149;-82
2022/08/24 03:14:45;;;;;;;2.83;2.30;;;20.60;99.40;;;21.09;100.00;101078.47;5114417;28;20051;-81
2022/08/24 03:17:18;;;;;;;;;;;20.60;99.50;;;21.05;100.00;101082.00;5131677;28;20047;-82
2022/08/24 03:19:51;;;;;;;3.30;2.47;;;20.50;99.60;;;20.99;100.00;101079.38;5130229;28;20406;-82
2022/08/24 03:22:24;;;;;;;2.67;2.28;;;20.50;99.70;;;20.94;100.00;101081.19;5130309;28;20046;-82
2022/08/24 03:24:56;;;;;;;4.05;2.40;;;20.50;99.90;;;20.89;100.00;101080.31;5129730;28;20606;-81
2022/08/24 03:27:30;;;;;;;2.97;2.53;;;20.40;99.90;;;20.85;100.00;101085.59;5128448;28;20117;-82
2022/08/24 03:30:03;;;;;;;3.63;2.28;;;20.30;99.90;;;20.83;100.00;101086.50;5129714;28;20426;-81
2022/08/24 03:32:36;;;;;;;3.47;2.63;;;20.30;99.90;;;20.82;100.00;101082.97;5113602;28;20422;-81
2022/08/24 03:35:12;;;;;;;5.60;2.60;;;20.30;99.90;;;20.81;100.00;101078.56;5098106;28;20057;-81
2022/08/24 03:37:46;;;;;;;3.67;2.85;;;20.30;99.90;;;20.77;100.00;101082.09;5113425;28;20392;-81
2022/08/24 03:40:21;;;;;;;5.15;2.78;;;20.30;99.90;;;20.72;100.00;101081.22;5129262;28;20466;-82
2022/08/24 03:42:56;;;;;;;4.70;2.10;;;20.20;99.90;;;20.69;100.00;101075.94;5113639;28;20534;-82
2022/08/24 03:45:30;;;;;;;4.38;2.45;;;20.20;99.90;;;20.64;100.00;101079.47;5129145;28;20070;-81
2022/08/24 03:48:03;;;;;;;3.25;2.50;;;20.20;99.90;;;20.59;100.00;101076.81;5113493;28;20053;-81
2022/08/24 03:50:36;;;;;;;5.38;3.30;;;20.10;99.90;;;20.58;100.00;101075.06;5129127;28;20487;-81
2022/08/24 03:53:09;;;;;;;4.70;2.65;;;20.10;99.90;;;20.58;100.00;101077.72;5128714;28;20051;-82
2022/08/24 03:55:42;;;;;;;4.43;2.95;;;20.10;99.90;;;20.54;100.00;101073.34;5113202;28;20051;-82
2022/08/24 03:58:17;;;;;;;4.10;2.90;;;20.00;99.90;;;20.53;100.00;101082.13;5129285;28;20051;-82
2022/08/24 04:00:50;;;;;;;3.85;2.60;;;20.00;99.90;;;20.53;100.00;101076.84;5128877;28;20076;-81
2022/08/24 04:03:22;;;;;;;3.53;2.35;;;20.00;99.90;;;20.54;100.00;101075.97;5128735;28;20043;-81
2022/08/24 04:05:56;;;;;;;4.65;2.42;;;20.00;99.90;;;20.50;100.00;101082.16;5128973;28;20058;-81
2022/08/24 04:08:28;;;;;;;3.75;2.65;;;20.00;99.90;;;20.47;100.00;101076.84;5128967;28;20117;-81
2022/08/24 04:11:02;;;;;;;3.35;2.63;;;20.00;99.90;;;20.45;100.00;101073.34;5097455;28;20419;-81
2022/08/24 04:13:36;;;;;;;5.20;2.80;;;20.00;99.90;;;20.42;100.00;101075.97;5113413;28;20051;-80
2022/08/24 04:16:16;;;;;;;3.72;2.45;;;19.90;99.90;;;20.41;100.00;101076.81;5112975;28;20574;-80
2022/08/24 04:18:50;;;;;;;;;;;19.90;99.90;;;20.38;100.00;101080.34;5129783;28;20047;-80
2022/08/24 04:21:28;;;;;;;4.60;2.80;;;19.90;99.90;;;20.38;100.00;101083.00;5129195;28;20401;-80
2022/08/24 04:24:03;;;;;;;3.58;2.40;;;19.90;99.90;;;20.39;100.00;101083.88;5113191;28;20047;-80
2022/08/24 04:26:40;;;;;;;4.32;2.75;;;19.90;99.90;;;20.37;100.00;101081.25;5112904;28;20047;-80
2022/08/24 04:29:19;;;;;;;4.45;2.80;;;19.90;99.90;;;20.36;100.00;101083.91;5128989;28;20058;-80
2022/08/24 04:31:57;;;;;;;4.93;3.00;;;19.90;99.90;;;20.31;100.00;101087.44;5128682;28;20142;-80
2022/08/24 04:34:32;;;;;;;3.38;2.47;;;19.80;99.90;;;20.24;100.00;101080.38;5128316;28;20057;-80
2022/08/24 04:37:06;;;;;;;2.92;2.53;;;19.80;99.90;;;20.21;100.00;101083.03;5112548;28;20464;-80
2022/08/24 04:39:41;;;;;;;3.20;2.40;;;19.80;99.90;;;20.20;100.00;101093.59;5111867;28;20070;-81
2022/08/24 04:42:30;;;;;;;5.85;3.42;;;19.70;99.90;;;20.14;100.00;101097.13;5128253;28;20090;-80
2022/08/24 04:45:05;;;;;;;4.50;2.83;;;19.70;99.90;;;20.12;100.00;101088.31;5112773;28;20482;-80
2022/08/24 04:47:38;;;;;;;3.72;2.50;;;19.60;99.90;;;20.10;100.00;101102.44;5127752;28;20138;-80
2022/08/24 04:50:11;;;;;;;3.20;2.40;;;19.60;99.90;;;20.08;100.00;101093.59;5127390;28;20055;-80
2022/08/24 04:52:45;;;;;;;4.07;3.10;;;19.60;99.90;;;20.10;100.00;101098.03;5128423;28;20522;-81
2022/08/24 04:55:19;;;;;;;5.85;2.80;;;19.60;99.90;;;20.15;100.00;101095.34;5129286;28;20462;-81
2022/08/24 04:57:51;;;;;;;4.72;2.80;;;19.60;99.90;;;20.19;100.00;101095.38;5128217;28;20047;-80
2022/08/24 05:00:30;;;;;;;3.22;2.40;;;19.70;99.90;;;20.24;100.00;101111.25;5129111;28;20051;-80
2022/08/24 05:03:03;;;;;;;4.13;2.92;;;19.70;99.90;;;20.26;100.00;101102.41;5111926;28;20062;-80
2022/08/24 05:05:36;;;;;;;5.03;2.83;;;19.80;99.90;;;20.27;100.00;101106.81;5128180;28;20113;-81
2022/08/24 05:08:09;;;;;;;3.47;2.40;;;19.80;99.90;;;20.27;99.36;101106.81;5127651;28;20043;-81
2022/08/24 05:10:46;;;;;;;3.88;2.65;;;19.80;99.90;;;20.29;98.46;101115.69;5112158;28;20246;-80
2022/08/24 05:13:18;;;;;;;3.35;2.45;;;19.80;99.70;;;20.33;98.18;101114.78;5127523;28;20057;-81
2022/08/24 05:15:52;;;;;;;4.55;2.92;;;19.80;99.60;;;20.32;97.65;101117.44;5127620;28;20043;-80
2022/08/24 05:18:28;;;;;;;4.95;3.30;;;19.90;99.40;;;20.33;97.96;101112.13;5127936;28;20411;-81
2022/08/24 05:21:04;;;;;;;5.53;3.20;;;19.90;99.50;;;20.36;98.04;101118.31;5113254;28;20125;-80
2022/08/24 05:23:39;;;;;;;3.45;2.63;;;19.90;99.50;;;20.36;98.37;101119.19;5127578;28;20575;-81
2022/08/24 05:26:16;;;;;;;4.35;2.60;;;19.90;99.50;;;20.39;98.23;101118.31;5127586;28;20051;-80
2022/08/24 05:28:50;;;;;;;4.30;2.72;;;19.90;99.50;;;20.43;97.73;101118.31;5127578;28;20050;-81
2022/08/24 05:31:26;;;;;;;4.07;2.60;;;20.00;99.40;;;20.53;97.40;101119.22;5096187;28;20058;-82
2022/08/24 05:34:05;;;;;;;3.90;2.92;;;20.00;99.30;;;21.14;97.09;101129.69;5111850;28;20061;-81
2022/08/24 05:36:41;;;;;;;4.65;2.90;;;20.40;99.60;;;22.17;93.06;101128.31;5127514;28;20042;-81
2022/08/24 05:39:20;;;;;;;5.35;3.40;;;21.10;99.10;;;23.24;87.22;101137.03;5127188;28;20051;-80
2022/08/24 05:42:01;;;;;;;5.03;3.08;;;22.00;97.50;;;24.14;82.27;101129.63;5127222;28;20053;-81
2022/08/24 05:44:39;;;;;;;4.93;3.13;;;22.90;95.60;;;24.87;78.38;101131.03;5144722;28;20420;-80
2022/08/24 05:47:13;;;;;;;4.10;3.05;;;23.60;93.80;;;25.46;74.86;101131.66;5126915;28;20050;-81
2022/08/24 05:49:50;;;;;;;5.22;2.90;;;24.30;91.80;;;25.97;72.27;101134.13;5095901;28;20056;-81
2022/08/24 05:52:24;;;;;;;3.63;2.60;;;24.80;90.00;;;26.41;70.31;101141.09;5127105;28;20073;-80
2022/08/24 05:54:58;;;;;;;;;;;25.30;87.00;;;26.67;68.36;101135.06;5127654;28;20573;-81
2022/08/24 05:57:35;;;;;;;4.47;3.00;;;25.70;83.80;;;26.93;67.85;101146.84;5110831;28;19933;-80
2022/08/24 06:00:19;;;;;;;4.45;3.20;;;26.00;82.40;;;27.11;67.53;101142.81;5112643;28;20530;-82
2022/08/24 06:02:56;;;;;;;6.90;2.97;;;26.20;81.20;;;27.25;66.23;101146.84;5096512;28;20070;-81
2022/08/24 06:05:29;;;;;;;;;;;26.30;79.10;;;27.28;66.16;101148.59;5111731;28;20411;-85
2022/08/24 06:08:03;;;;;;;4.93;2.83;;;26.40;78.40;;;27.40;65.39;101147.34;5110823;28;19926;-85
2022/08/24 06:10:41;;;;;;;4.22;3.15;;;26.50;77.40;;;27.48;64.91;101158.69;5126482;28;20492;-85
2022/08/24 06:13:19;;;;;;;4.68;2.40;;;26.60;76.40;;;27.67;64.50;101154.56;5126319;28;20050;-86
2022/08/24 06:16:05;;;;;;;5.93;2.80;;;26.70;75.80;;;27.94;63.85;101151.97;5111254;28;20063;-87
2022/08/24 06:18:41;;;;;;;4.45;2.70;;;27.00;75.00;;;28.12;62.49;101164.78;5102544;28;20392;-87
2022/08/24 06:21:20;;;;;;;5.57;2.60;;;27.10;73.30;;;28.17;61.86;101176.25;5127278;28;20046;-87
2022/08/24 06:23:55;;;;;;;5.45;2.50;;;27.20;72.30;;;28.28;61.57;101163.34;5126921;28;20051;-86
2022/08/24 06:29:20;;;;;;;5.60;2.88;;;27.40;71.40;;;28.28;61.56;101174.06;5126385;28;20043;-80
2022/08/24 06:31:57;;;;;;;3.30;2.47;;;27.40;71.20;;;27.99;62.62;101174.16;5126400;28;20051;-78
2022/08/24 06:34:32;;;;;;;3.58;2.40;;;27.20;71.60;;;27.65;63.39;101177.84;5107659;28;20085;-80
2022/08/24 06:37:05;;;;;;;;;;;26.90;72.00;;;27.28;64.06;101170.88;5093551;28;20051;-80
2022/08/24 06:39:38;;;;;;;4.38;2.65;;;26.70;72.40;;;27.00;64.62;101178.75;5120137;28;19927;-77
2022/08/24 06:42:11;;;;;;;6.00;2.30;;;26.40;72.70;;;26.74;64.74;101176.78;5109124;28;20145;-79
2022/08/24 06:44:48;;;;;;;4.25;2.60;;;26.10;72.90;;;26.60;65.22;101178.03;5122316;28;20050;-79
2022/08/24 06:47:27;;;;;;;4.22;2.50;;;26.00;73.20;;;26.45;65.63;101182.84;5118328;28;20067;-80
2022/08/24 06:50:08;;;;;;;5.18;2.55;;;25.80;73.70;;;26.37;65.78;101187.47;5109931;28;20058;-81
2022/08/24 06:52:40;;;;;;;4.00;2.30;;;25.70;73.80;;;26.33;65.70;101183.09;5126551;28;20084;-81
2022/08/24 06:55:13;;;;;;;4.18;2.60;;;25.70;74.00;;;26.35;65.52;101183.09;5126289;28;20134;-81
2022/08/24 06:57:48;;;;;;;5.10;2.50;;;25.70;73.90;;;26.34;65.00;101186.66;5125080;28;20050;-81
2022/08/24 07:00:23;;;;;;;6.45;2.70;;;25.60;73.40;;;26.40;64.38;101186.53;5126212;28;20050;-79
2022/08/24 07:02:56;;;;;;;3.33;2.40;;;25.60;73.10;;;26.42;64.28;101187.41;5127241;28;20074;-79
2022/08/24 07:05:31;;;;;;;4.22;2.38;;;25.60;72.80;;;26.44;64.21;101186.44;5132075;28;20082;-79
2022/08/24 07:08:37;;;;;;;5.40;2.80;;;25.70;72.80;;;26.45;63.69;101179.28;5142231;28;20554;-80
2022/08/24 07:11:13;;;;;;;4.32;2.75;;;25.70;72.30;;;26.54;63.60;101187.09;5113759;28;20238;-81
2022/08/24 07:13:46;;;;;;;4.13;2.35;;;25.70;72.10;;;26.66;63.54;101176.06;5113883;28;20145;-81
2022/08/24 07:16:22;;;;;;;5.95;2.35;;;25.80;71.90;;;26.82;63.19;101186.38;5113584;28;20043;-84
2022/08/24 07:18:59;;;;;;;5.10;3.00;;;26.00;71.90;;;26.95;62.71;101186.03;5129656;28;20606;-83
2022/08/24 07:21:33;;;;;;;6.25;2.90;;;26.10;71.50;;;27.09;62.89;101191.03;5098178;28;20586;-83
2022/08/24 07:24:07;;;;;;;5.43;2.78;;;26.20;71.50;;;27.24;62.63;101193.28;5129484;28;20101;-82
2022/08/24 07:26:44;;;;;;;6.07;2.67;;;26.30;71.40;;;27.41;61.67;101191.94;5113878;28;20062;-83
2022/08/24 07:29:18;;;;;;;5.90;3.05;;;26.50;70.70;;;27.48;61.72;101189.03;5098189;28;20587;-82
2022/08/24 07:31:53;;;;;;;5.25;2.65;;;26.60;70.50;;;27.58;61.71;101190.53;5114101;28;20078;-83
2022/08/24 07:34:44;;;;;;;5.28;2.83;;;26.70;70.20;;;27.74;61.21;101188.28;5115836;28;20050;-84
2022/08/24 07:37:18;;;;;;;7.22;3.08;;;26.70;69.90;;;27.87;60.87;101190.59;5129225;28;20139;-83
2022/08/24 07:39:55;;;;;;;5.05;2.60;;;26.90;69.60;;;28.03;60.38;101194.53;5129357;28;20058;-82
2022/08/24 07:42:32;;;;;;;4.47;2.70;;;27.00;69.20;;;28.12;59.91;101189.78;5113543;28;20051;-83
2022/08/24 07:45:08;;;;;;;3.72;2.40;;;27.10;68.80;;;28.19;59.49;101187.78;5113720;28;20054;-83
2022/08/24 07:47:42;;;;;;;3.22;2.20;;;27.20;68.20;;;28.33;59.94;101193.59;5128579;28;20101;-83
2022/08/24 07:50:31;;;;;;;3.25;2.30;;;27.30;68.40;;;28.57;59.37;101197.28;5129241;28;20243;-82
2022/08/24 07:53:04;;;;;;;4.60;2.40;;;27.40;68.20;;;28.75;58.41;101195.78;5129061;28;20051;-83
2022/08/24 07:55:38;;;;;;;4.75;2.30;;;27.60;67.30;;;28.90;58.00;101195.25;5129125;28;20054;-83
2022/08/24 07:58:12;;;;;;;3.42;2.35;;;27.70;66.80;;;29.09;56.93;101194.66;5128838;28;20047;-81
2022/08/24 08:00:48;;;;;;;3.97;2.10;;;27.90;65.90;;;29.24;57.11;101194.09;5113198;28;20046;-82
2022/08/24 08:03:24;;;;;;;2.60;2.00;;;28.00;65.70;;;29.45;56.28;101201.34;5128844;28;20114;-90
2022/08/24 08:05:58;;;;;;;3.75;2.08;;;28.20;65.30;;;29.68;55.50;101208.59;5113314;28;20046;-81
2022/08/24 08:08:35;;;;;;;3.78;2.45;;;28.40;65.10;;;29.82;54.59;101205.38;5128758;28;20053;-82
2022/08/24 08:11:10;;;;;;;3.55;2.55;;;28.50;63.50;;;30.06;54.62;101208.91;5128756;28;20392;-81
2022/08/24 08:13:45;;;;;;;2.67;2.13;;;28.70;63.30;;;30.41;53.91;101215.56;5113113;28;20054;-80
2022/08/24 08:16:20;;;;;;;3.65;2.03;;;28.90;63.10;;;30.79;53.00;101208.63;5112538;28;20524;-81
2022/08/24 08:18:53;;;;;;;5.00;2.25;;;29.10;62.50;;;31.13;52.33;101214.34;5128607;28;20050;-81
2022/08/24 08:24:18;;;;;;;2.75;2.00;;;29.60;61.20;;;32.25;50.77;101215.47;5087087;28;20057;-82
2022/08/24 08:27:00;;;;;;;3.95;2.13;;;29.90;60.80;;;32.93;50.10;101217.47;5129675;28;20055;-82
2022/08/24 08:29:44;;;;;;;4.35;2.00;;;30.20;60.60;;;33.84;48.97;101218.88;5114064;28;20051;-78
2022/08/24 08:32:19;;;;;;;3.67;1.83;;;30.60;60.00;;;34.67;47.99;101220.44;5112666;28;20061;-80
2022/08/24 08:34:54;;;;;;;4.60;2.13;;;31.10;59.50;;;35.67;45.98;101228.81;5112782;28;20146;-79
2022/08/24 08:37:27;;;;;;;3.28;1.80;;;31.60;58.00;;;36.64;44.28;101226.09;5110989;28;20049;-79
2022/08/24 08:40:05;;;;;;;2.65;1.90;;;32.30;56.60;;;37.59;43.63;101220.41;5107485;28;20051;-77
2022/08/24 08:43:05;;;;;;;3.38;2.20;;;33.20;55.90;;;38.50;42.42;101225.53;5128727;28;20057;-78
2022/08/24 08:46:13;;;;;;;3.47;1.85;;;34.10;53.90;;;39.06;40.69;101229.34;5103361;28;20047;-79
2022/08/24 08:50:04;;;;;;;3.08;1.73;;;34.80;51.90;;;39.93;40.77;101224.25;5134297;28;20058;-81
2022/08/24 08:53:46;;;;;;;2.47;1.98;;;35.80;51.50;;;40.66;40.52;101217.25;5122408;28;20727;-81
2022/08/24 08:56:34;;;;;;;3.50;1.80;;;36.40;50.50;;;41.03;39.29;101223.19;5115679;28;20120;-81
2022/08/24 08:59:23;;;;;;;3.25;1.63;;;36.90;50.00;;;41.26;39.75;101225.75;5122811;28;20195;-82
2022/08/24 09:02:23;;;;;;;4.20;1.85;;;37.10;49.60;;;41.65;39.38;101224.09;5115449;28;20137;-82
2022/08/24 09:05:35;;;;;;;3.05;1.65;;;37.50;48.60;;;41.63;38.61;101218.78;5127145;28;20039;-81
2022/08/24 09:08:22;;;;;;;3.92;1.90;;;37.70;48.00;;;41.29;39.04;101220.03;5122024;28;20039;-82
2022/08/24 09:11:03;;;;;;;2.20;1.67;;;37.60;47.50;;;40.99;38.73;101218.97;5112332;28;20054;-81
2022/08/24 09:14:14;;;;;;;3.20;2.15;;;37.50;47.40;;;40.50;39.15;101220.44;5127649;28;20101;-81
2022/08/24 09:17:21;;;;;;;3.80;2.20;;;37.40;47.50;;;39.83;39.79;101215.94;5117788;28;20051;-81
2022/08/24 09:20:10;;;;;;;5.10;2.10;;;37.10;47.50;;;39.15;40.90;101205.06;5094135;29;20138;-78
2022/08/24 09:22:48;;;;;;;5.68;2.30;;;36.80;48.00;;;38.39;41.81;101201.81;5099042;28;20094;-81
2022/08/24 09:25:29;;;;;;;4.32;2.15;;;36.30;48.50;;;37.54;42.05;101194.50;5126376;28;20057;-79
2022/08/24 09:28:22;;;;;;;3.35;1.98;;;35.80;48.50;;;36.61;42.81;101188.31;5158362;28;20047;-83
2022/08/24 09:31:21;;;;;;;4.75;2.03;;;35.20;48.90;;;35.95;43.92;101194.53;5123145;28;20426;-78
2022/08/24 09:34:27;;;;;;;3.35;2.20;;;34.70;49.70;;;35.49;45.24;101192.03;5118456;28;20332;-79
2022/08/24 09:37:30;;;;;;;4.70;2.47;;;34.20;50.60;;;35.13;45.66;101185.19;5133587;28;20454;-79
2022/08/24 09:40:43;;;;;;;4.22;2.30;;;33.90;51.80;;;34.76;45.25;101182.00;5135910;28;20122;-79
2022/08/24 09:44:00;;;;;;;4.18;2.05;;;33.60;50.80;;;34.56;46.09;101185.06;5126145;28;20055;-79
2022/08/24 09:47:13;;;;;;;3.55;1.85;;;33.40;51.20;;;34.48;46.08;101184.59;5112752;28;20066;-79
2022/08/24 09:50:26;;;;;;;4.85;2.40;;;33.30;51.40;;;34.49;46.45;101180.94;5123597;28;20038;-78
2022/08/24 09:54:03;;;;;;;4.55;2.05;;;33.30;51.80;;;34.60;46.77;101175.75;5103009;28;20463;-78
2022/08/24 09:56:58;;;;;;;3.22;1.80;;;33.30;52.20;;;34.75;47.29;101182.09;5085702;29;20794;-80
2022/08/24 09:59:57;;;;;;;2.35;1.80;;;33.40;52.50;;;34.79;47.42;101170.13;5125584;28;20057;-80
2022/08/24 10:03:00;;;;;;;4.25;2.15;;;33.40;52.60;;;34.78;46.78;101169.25;5094506;28;20082;-80
2022/08/24 10:06:11;;;;;;;2.92;2.00;;;33.40;52.30;;;34.80;46.67;101167.31;5111630;28;20061;-80
2022/08/24 10:09:02;;;;;;;3.30;2.05;;;33.50;52.30;;;34.78;45.96;101163.84;5126316;28;20545;-80
2022/08/24 10:11:45;;;;;;;3.60;2.20;;;33.50;51.60;;;34.66;45.89;101163.69;5126621;28;20068;-80
2022/08/24 10:14:40;;;;;;;3.85;2.00;;;33.40;51.40;;;34.63;46.19;101155.78;5126494;28;20050;-80
2022/08/24 10:17:23;;;;;;;3.00;2.20;;;33.30;51.50;;;34.66;45.67;101153.75;5126528;28;20070;-80
2022/08/24 10:20:10;;;;;;;2.63;1.90;;;33.40;51.30;;;34.68;45.09;101146.38;5108302;28;20050;-79
2022/08/24 10:23:09;;;;;;;4.10;1.75;;;33.40;50.80;;;34.83;44.79;101151.88;5143506;28;20039;-80
2022/08/24 10:25:53;;;;;;;3.45;1.98;;;33.50;50.70;;;34.74;44.82;101145.16;5110535;28;20057;-80
2022/08/24 10:29:03;;;;;;;3.00;2.00;;;33.50;50.60;;;34.42;44.64;101144.38;5120498;28;20426;-80
2022/08/24 10:31:55;;;;;;;3.35;1.95;;;33.30;50.10;;;34.29;45.29;101147.78;5124633;28;20537;-80
2022/08/24 10:34:49;;;;;;;2.58;1.90;;;33.10;50.60;;;34.35;45.31;101137.56;5110354;28;20419;-80
2022/08/24 10:42:01;;;;;;;2.08;1.77;;;33.30;51.30;;;34.93;44.91;101137.69;5127608;28;20042;-79
2022/08/24 10:44:55;;;;;;;2.70;1.80;;;33.50;50.70;;;35.10;45.25;101133.06;5108838;28;20418;-81
2022/08/24 10:47:29;;;;;;;2.05;1.80;;;33.70;50.90;;;35.09;45.11;101137.59;5124432;28;20074;-80
2022/08/24 10:50:32;;;;;;;2.50;1.88;;;33.70;50.70;;;35.00;44.99;101132.75;5129807;28;20070;-80
2022/08/24 10:53:26;;;;;;;3.17;1.77;;;33.70;50.70;;;34.76;45.04;101130.56;5112050;28;20142;-80
2022/08/24 10:56:11;;;;;;;4.50;2.10;;;33.50;50.40;;;34.69;45.35;101131.91;5112169;28;20051;-80
2022/08/24 10:58:59;;;;;;;2.35;1.88;;;33.50;50.80;;;34.82;45.57;101129.28;5146240;28;20407;-80
2022/08/24 11:01:36;;;;;;;2.67;1.60;;;33.50;50.80;;;35.00;44.77;101120.06;5128080;28;20054;-80
2022/08/24 11:04:17;;;;;;;2.35;1.60;;;33.60;50.60;;;35.16;44.98;101114.59;5129894;28;20058;-82
2022/08/24 11:07:10;;;;;;;3.08;2.08;;;33.80;51.20;;;35.27;44.65;101117.47;5109998;29;20051;-81
2022/08/24 11:09:50;;;;;;;;;;;33.90;50.20;;;35.41;44.45;101119.31;5126473;29;20048;-80
2022/08/24 11:12:31;;;;;;;1.90;1.52;;;34.10;50.00;;;35.69;44.35;101118.41;5126472;29;19923;-80
2022/08/24 11:15:22;;;;;;;3.30;1.60;;;34.30;50.00;;;35.83;43.88;101110.25;5109612;29;20051;-82